createdAt,value
2022-10-17T00:00:36.334Z,15.60
2022-10-17T00:03:39.455Z,15.70
2022-10-17T00:06:41.209Z,15.40
2022-10-17T00:09:44.036Z,15.60
2022-10-17T00:12:45.590Z,15.90
2022-10-17T00:15:47.128Z,16.00
2022-10-17T00:18:48.669Z,15.80
2022-10-17T00:21:50.375Z,15.80
2022-10-17T00:24:51.986Z,15.80
2022-10-17T00:27:53.509Z,15.80
2022-10-17T00:30:59.904Z,18.00
2022-10-17T00:34:01.442Z,16.30
2022-10-17T00:37:02.990Z,16.30
2022-10-17T00:40:06.872Z,14.10
2022-10-17T00:43:18.154Z,16.50
2022-10-17T00:46:20.403Z,16.20
2022-10-17T00:49:24.562Z,16.60
2022-10-17T00:52:29.738Z,16.10
2022-10-17T00:55:35.368Z,16.30
2022-10-17T00:58:36.895Z,16.30
2022-10-17T01:01:46.202Z,16.40
2022-10-17T01:04:51.062Z,16.50
2022-10-17T01:07:53.864Z,16.40
2022-10-17T01:11:16.543Z,16.60
2022-10-17T01:14:54.010Z,16.80
2022-10-17T01:18:04.829Z,16.20
2022-10-17T01:21:06.337Z,16.60
2022-10-17T01:24:49.068Z,16.30
2022-10-17T01:28:18.612Z,16.70
2022-10-17T01:31:29.477Z,16.70
2022-10-17T01:34:32.903Z,17.70
2022-10-17T01:37:45.138Z,18.00
2022-10-17T01:40:55.910Z,16.60
2022-10-17T01:44:13.397Z,16.60
2022-10-17T01:47:19.623Z,16.50
2022-10-17T01:50:27.884Z,16.80
2022-10-17T01:53:34.403Z,16.80
2022-10-17T01:56:37.971Z,16.80
2022-10-17T01:59:47.137Z,16.40
2022-10-17T02:02:52.914Z,16.80
2022-10-17T02:05:54.548Z,16.70
2022-10-17T02:08:56.159Z,16.70
2022-10-17T02:12:45.236Z,16.30
2022-10-17T02:15:52.623Z,17.10
2022-10-17T02:19:30.585Z,16.80
2022-10-17T02:22:47.469Z,16.90
2022-10-17T02:26:02.962Z,17.40
2022-10-17T02:29:19.203Z,16.80
2022-10-17T02:32:33.539Z,16.90
2022-10-17T02:35:40.316Z,16.70
2022-10-17T02:38:43.297Z,17.00
2022-10-17T02:41:45.928Z,16.70
2022-10-17T02:44:48.229Z,17.40
2022-10-17T02:47:53.239Z,16.70
2022-10-17T02:51:17.368Z,16.90
2022-10-17T02:54:43.797Z,16.70
2022-10-17T02:57:50.876Z,16.80
2022-10-17T03:00:53.030Z,18.20
2022-10-17T03:04:12.632Z,18.50
2022-10-17T03:07:14.195Z,17.00
2022-10-17T03:10:16.086Z,18.20
2022-10-17T03:13:17.985Z,18.70
2022-10-17T03:16:19.532Z,16.80
2022-10-17T03:19:21.074Z,17.00
2022-10-17T03:22:23.091Z,17.10
2022-10-17T03:25:24.747Z,18.50
2022-10-17T03:28:26.338Z,17.00
2022-10-17T03:31:27.943Z,17.00
2022-10-17T03:34:29.474Z,16.70
2022-10-17T03:37:31.329Z,16.80
2022-10-17T03:40:32.997Z,18.80
2022-10-17T03:43:34.636Z,17.10
2022-10-17T03:46:36.252Z,17.10
2022-10-17T03:49:37.809Z,17.40
2022-10-17T03:52:39.440Z,17.00
2022-10-17T03:55:41.027Z,17.10
2022-10-17T03:58:43.057Z,18.10
2022-10-17T04:01:44.899Z,16.80
2022-10-17T04:04:46.492Z,17.00
2022-10-17T04:07:48.027Z,17.10
2022-10-17T04:10:49.575Z,16.70
2022-10-17T04:13:55.835Z,16.90
2022-10-17T04:16:58.564Z,16.80
2022-10-17T04:20:00.301Z,16.90
2022-10-17T04:23:01.849Z,16.80
2022-10-17T04:26:04.651Z,16.50
2022-10-17T04:29:06.218Z,16.90
2022-10-17T04:32:07.851Z,18.30
2022-10-17T04:35:09.517Z,16.90
2022-10-17T04:38:11.108Z,16.80
2022-10-17T04:41:17.636Z,16.60
2022-10-17T04:44:22.993Z,17.10
2022-10-17T04:47:24.561Z,16.90
2022-10-17T04:50:26.277Z,16.70
2022-10-17T04:53:30.358Z,17.10
2022-10-17T04:56:31.963Z,16.90
2022-10-17T04:59:33.507Z,17.00
2022-10-17T05:02:35.125Z,17.00
2022-10-17T05:05:43.352Z,17.00
2022-10-17T05:08:45.013Z,17.00
2022-10-17T05:11:46.591Z,17.00
2022-10-17T05:14:48.152Z,17.20
2022-10-17T05:17:53.924Z,17.10
2022-10-17T05:20:55.833Z,17.20
2022-10-17T05:23:57.939Z,18.80
2022-10-17T05:26:59.785Z,17.10
2022-10-17T05:30:01.346Z,16.70
2022-10-17T05:33:03.308Z,17.50
2022-10-17T05:36:05.849Z,17.10
2022-10-17T05:39:08.605Z,17.20
2022-10-17T05:42:10.191Z,18.20
2022-10-17T05:45:11.925Z,17.30
2022-10-17T05:48:13.501Z,17.10
2022-10-17T05:51:16.165Z,18.20
2022-10-17T05:54:17.692Z,17.10
2022-10-17T05:57:19.261Z,17.00
2022-10-17T06:00:22.038Z,17.10
2022-10-17T06:03:23.578Z,16.80
2022-10-17T06:06:25.164Z,19.30
2022-10-17T06:09:26.711Z,17.30
2022-10-17T06:12:28.595Z,16.80
2022-10-17T06:15:30.397Z,17.20
2022-10-17T06:18:32.549Z,17.00
2022-10-17T06:21:36.460Z,17.30
2022-10-17T06:24:38.081Z,16.90
2022-10-17T06:27:39.663Z,17.00
2022-10-17T06:30:41.471Z,17.10
2022-10-17T06:33:43.384Z,19.50
2022-10-17T06:36:45.009Z,19.60
2022-10-17T06:39:46.545Z,17.20
2022-10-17T06:42:48.175Z,16.70
2022-10-17T06:45:49.756Z,17.20
2022-10-17T06:48:51.325Z,17.20
2022-10-17T06:51:52.891Z,17.40
2022-10-17T06:54:54.502Z,17.60
2022-10-17T06:57:56.383Z,17.30
2022-10-17T07:01:10.589Z,17.30
2022-10-17T07:04:12.185Z,17.30
2022-10-17T07:07:13.744Z,17.60
2022-10-17T07:10:17.677Z,19.20
2022-10-17T07:13:19.876Z,17.60
2022-10-17T07:16:21.441Z,18.90
2022-10-17T07:19:22.962Z,18.10
2022-10-17T07:22:24.596Z,17.80
2022-10-17T07:25:26.311Z,17.60
2022-10-17T07:28:28.983Z,17.60
2022-10-17T07:31:30.663Z,17.70
2022-10-17T07:34:33.337Z,17.80
2022-10-17T07:37:35.233Z,18.90
2022-10-17T07:40:36.818Z,19.80
2022-10-17T07:43:38.951Z,18.40
2022-10-17T07:46:40.645Z,19.40
2022-10-17T07:49:44.009Z,18.10
2022-10-17T07:52:45.585Z,17.90
2022-10-17T07:55:47.985Z,18.10
2022-10-17T07:58:49.569Z,18.30
2022-10-17T08:01:51.210Z,18.30
2022-10-17T08:04:53.540Z,18.40
2022-10-17T08:07:55.199Z,18.10
2022-10-17T08:11:06.243Z,19.40
2022-10-17T08:14:07.818Z,18.50
2022-10-17T08:17:09.753Z,18.60
2022-10-17T08:20:11.756Z,19.60
2022-10-17T08:23:13.305Z,18.80
2022-10-17T08:26:17.162Z,18.60
2022-10-17T08:29:19.471Z,18.60
2022-10-17T08:32:22.380Z,19.00
2022-10-17T08:35:24.005Z,19.10
2022-10-17T08:38:27.870Z,18.90
2022-10-17T08:41:57.033Z,18.70
2022-10-17T08:45:17.224Z,19.40
2022-10-17T08:48:23.114Z,19.10
2022-10-17T08:51:33.146Z,18.80
2022-10-17T08:54:45.890Z,19.10
2022-10-17T08:57:48.476Z,21.10
2022-10-17T09:01:33.716Z,20.30
2022-10-17T09:04:57.422Z,19.20
2022-10-17T09:08:13.945Z,19.00
2022-10-17T09:11:36.927Z,18.90
2022-10-17T09:15:07.915Z,19.20
2022-10-17T09:18:12.332Z,19.40
2022-10-17T09:21:26.542Z,19.10
2022-10-17T09:24:45.712Z,19.50
2022-10-17T09:28:02.533Z,19.00
2022-10-17T09:31:27.215Z,19.50
2022-10-17T09:34:31.193Z,18.40
2022-10-17T09:37:32.924Z,19.90
2022-10-17T09:40:36.498Z,19.20
2022-10-17T09:43:39.815Z,20.30
2022-10-17T09:46:50.438Z,20.10
2022-10-17T09:49:52.474Z,19.80
2022-10-17T09:52:55.597Z,20.30
2022-10-17T09:56:00.044Z,19.50
2022-10-17T09:59:01.643Z,19.70
2022-10-17T10:02:19.716Z,19.80
2022-10-17T10:05:21.686Z,19.80
2022-10-17T10:08:26.219Z,19.70
2022-10-17T10:11:47.530Z,20.00
2022-10-17T10:14:54.598Z,19.60
2022-10-17T10:17:56.884Z,19.90
2022-10-17T10:21:15.205Z,19.70
2022-10-17T10:24:16.715Z,19.70
2022-10-17T10:27:20.560Z,19.60
2022-10-17T10:30:27.665Z,19.50
2022-10-17T10:33:41.752Z,19.20
2022-10-17T10:36:53.728Z,19.60
2022-10-17T10:40:00.848Z,19.60
2022-10-17T10:43:05.618Z,20.80
2022-10-17T10:46:36.519Z,20.00
2022-10-17T10:49:39.174Z,19.90
2022-10-17T10:52:47.981Z,20.10
2022-10-17T10:55:51.768Z,19.90
2022-10-17T10:58:54.945Z,20.20
2022-10-17T11:01:59.901Z,21.80
2022-10-17T11:05:18.063Z,20.00
2022-10-17T11:08:47.369Z,19.70
2022-10-17T11:12:06.946Z,19.90
2022-10-17T11:15:26.697Z,19.70
2022-10-17T11:19:08.142Z,22.10
2022-10-17T11:22:17.942Z,19.40
2022-10-17T11:25:30.491Z,19.80
2022-10-17T11:28:32.331Z,19.70
2022-10-17T11:31:43.353Z,19.70
2022-10-17T11:34:49.597Z,19.60
2022-10-17T11:38:03.101Z,19.40
2022-10-17T11:41:06.548Z,20.00
2022-10-17T11:44:21.598Z,19.70
2022-10-17T11:47:43.728Z,19.80
2022-10-17T11:54:52.506Z,19.70
2022-10-17T11:58:13.053Z,19.70
2022-10-17T12:01:43.619Z,21.50
2022-10-17T12:04:57.287Z,20.30
2022-10-17T12:08:40.282Z,20.30
2022-10-17T12:11:55.721Z,19.50
2022-10-17T12:15:23.375Z,19.90
2022-10-17T12:18:29.135Z,20.20
2022-10-17T12:22:13.919Z,20.10
2022-10-17T12:25:26.163Z,19.30
2022-10-17T12:28:33.663Z,19.80
2022-10-17T12:31:35.245Z,20.10
2022-10-17T12:34:38.020Z,21.70
2022-10-17T12:37:45.586Z,19.70
2022-10-17T12:40:49.934Z,19.40
2022-10-17T12:43:53.770Z,19.70
2022-10-17T12:47:10.549Z,19.80
2022-10-17T12:50:56.516Z,21.30
2022-10-17T12:54:14.896Z,19.70
2022-10-17T12:57:37.702Z,19.50
2022-10-17T13:01:18.964Z,19.70
2022-10-17T13:04:16.648Z,19.50
2022-10-17T13:07:21.097Z,18.90
2022-10-17T13:13:38.229Z,19.60
2022-10-17T13:16:51.094Z,19.30
2022-10-17T13:19:53.181Z,19.30
2022-10-17T13:22:57.087Z,19.20
2022-10-17T13:26:19.904Z,19.20
2022-10-17T13:29:23.340Z,18.90
2022-10-17T13:32:27.829Z,20.20
2022-10-17T13:35:58.934Z,19.10
2022-10-17T13:39:11.996Z,18.60
2022-10-17T13:42:28.302Z,19.20
2022-10-17T13:45:33.404Z,18.80
2022-10-17T13:48:37.760Z,19.10
2022-10-17T13:51:43.865Z,20.70
2022-10-17T13:54:48.150Z,18.90
2022-10-17T13:57:49.648Z,19.30
2022-10-17T14:00:52.703Z,19.00
2022-10-17T14:04:07.638Z,19.00
2022-10-17T14:07:34.091Z,20.60
2022-10-17T14:10:41.333Z,21.00
2022-10-17T14:13:44.230Z,19.20
2022-10-17T14:16:46.090Z,19.50
2022-10-17T14:20:05.852Z,20.40
2022-10-17T14:23:41.930Z,19.60
2022-10-17T14:26:51.165Z,19.60
2022-10-17T14:29:54.994Z,19.80
2022-10-17T14:33:03.388Z,18.80
2022-10-17T14:36:05.422Z,18.90
2022-10-17T14:39:18.167Z,19.00
2022-10-17T14:42:21.629Z,18.90
2022-10-17T14:45:35.682Z,19.40
2022-10-17T14:48:37.252Z,19.20
2022-10-17T14:51:50.340Z,20.80
2022-10-17T14:55:00.259Z,19.10
2022-10-17T14:58:02.295Z,18.90
2022-10-17T15:01:03.898Z,18.90
2022-10-17T15:04:05.496Z,19.40
2022-10-17T15:07:13.639Z,19.10
2022-10-17T15:10:34.150Z,18.90
2022-10-17T15:13:41.030Z,19.50
2022-10-17T15:16:44.989Z,20.70
2022-10-17T15:19:47.457Z,19.20
2022-10-17T15:22:49.098Z,18.90
2022-10-17T15:25:50.705Z,18.80
2022-10-17T15:28:53.333Z,19.10
2022-10-17T15:31:54.938Z,19.40
2022-10-17T15:34:56.458Z,18.50
2022-10-17T15:37:58.147Z,19.00
2022-10-17T15:40:59.690Z,18.50
2022-10-17T15:44:01.421Z,18.60
2022-10-17T15:47:03.370Z,18.80
2022-10-17T15:50:06.582Z,18.80
2022-10-17T15:53:24.006Z,18.60
2022-10-17T15:56:31.519Z,18.40
2022-10-17T15:59:34.814Z,18.40
2022-10-17T16:02:43.010Z,18.70
2022-10-17T16:06:34.482Z,18.50
2022-10-17T16:10:00.110Z,17.80
2022-10-17T16:13:34.052Z,16.90
2022-10-17T16:16:35.638Z,18.10
2022-10-17T16:19:37.260Z,18.40
2022-10-17T16:26:40.019Z,18.80
2022-10-17T16:30:02.281Z,18.20
2022-10-17T16:33:46.728Z,18.80
2022-10-17T16:36:48.261Z,18.20
2022-10-17T16:39:52.374Z,18.00
2022-10-17T16:42:59.594Z,18.20
2022-10-17T16:46:07.537Z,18.30
2022-10-17T16:49:12.778Z,18.00
2022-10-17T16:52:17.238Z,19.80
2022-10-17T16:55:19.577Z,18.50
2022-10-17T16:58:43.930Z,19.20
2022-10-17T17:01:45.681Z,18.60
2022-10-17T17:04:49.933Z,19.60
2022-10-17T17:07:51.520Z,18.00
2022-10-17T17:10:54.835Z,17.60
2022-10-17T17:13:59.131Z,17.90
2022-10-17T17:17:00.783Z,17.50
2022-10-17T17:20:02.420Z,17.50
2022-10-17T17:23:07.137Z,17.70
2022-10-17T17:26:15.078Z,17.60
2022-10-17T17:29:16.678Z,17.40
2022-10-17T17:32:18.214Z,17.60
2022-10-17T17:35:19.898Z,17.50
2022-10-17T17:38:21.884Z,17.50
2022-10-17T17:41:23.876Z,17.50
2022-10-17T17:44:26.742Z,17.40
2022-10-17T17:47:29.549Z,17.50
2022-10-17T17:50:32.793Z,17.00
2022-10-17T17:53:35.088Z,17.50
2022-10-17T17:56:40.877Z,16.90
2022-10-17T17:59:42.419Z,18.60
2022-10-17T18:02:44.560Z,17.40
2022-10-17T18:05:46.181Z,17.30
2022-10-17T18:08:50.536Z,17.60
2022-10-17T18:11:52.235Z,18.70
2022-10-17T18:14:53.828Z,17.60
2022-10-17T18:17:55.361Z,17.30
2022-10-17T18:21:00.812Z,17.20
2022-10-17T18:24:04.366Z,15.30
2022-10-17T18:27:05.981Z,17.40
2022-10-17T18:30:10.400Z,17.60
2022-10-17T18:33:12.492Z,17.30
2022-10-17T18:36:15.866Z,18.00
2022-10-17T18:39:17.441Z,17.20
2022-10-17T18:42:19.036Z,18.90
2022-10-17T18:45:21.957Z,16.40
2022-10-17T18:48:23.491Z,17.30
2022-10-17T18:51:25.943Z,17.30
2022-10-17T18:54:27.677Z,17.00
2022-10-17T18:57:29.521Z,17.30
2022-10-17T19:00:31.357Z,17.00
2022-10-17T19:03:33.084Z,16.90
2022-10-17T19:06:34.786Z,17.00
2022-10-17T19:09:41.438Z,17.10
2022-10-17T19:12:43.064Z,16.70
2022-10-17T19:15:44.681Z,17.20
2022-10-17T19:18:54.637Z,17.00
2022-10-17T19:21:56.587Z,16.80
2022-10-17T19:24:58.163Z,16.50
2022-10-17T19:27:59.738Z,16.70
2022-10-17T19:31:01.330Z,17.00
2022-10-17T19:34:03.122Z,16.80
2022-10-17T19:37:04.806Z,16.90
2022-10-17T19:40:09.122Z,16.70
2022-10-17T19:43:10.688Z,16.90
2022-10-17T19:46:15.058Z,16.90
2022-10-17T19:49:17.166Z,16.70
2022-10-17T19:52:18.720Z,16.70
2022-10-17T19:55:20.315Z,18.30
2022-10-17T19:58:22.763Z,16.80
2022-10-17T20:01:28.359Z,16.80
2022-10-17T20:04:29.985Z,16.80
2022-10-17T20:07:31.499Z,16.80
2022-10-17T20:10:33.940Z,16.80
2022-10-17T20:13:37.150Z,17.80
2022-10-17T20:16:38.825Z,16.20
2022-10-17T20:19:42.880Z,17.70
2022-10-17T20:22:44.597Z,18.00
2022-10-17T20:25:46.161Z,16.50
2022-10-17T20:28:48.610Z,16.50
2022-10-17T20:31:50.678Z,16.00
2022-10-17T20:34:58.502Z,16.60
2022-10-17T20:38:00.053Z,16.60
2022-10-17T20:41:05.823Z,16.30
2022-10-17T20:44:07.765Z,16.70
2022-10-17T20:47:16.237Z,16.30
2022-10-17T20:50:17.984Z,16.30
2022-10-17T20:53:37.245Z,16.20
2022-10-17T20:56:39.781Z,16.50
2022-10-17T20:59:41.507Z,16.50
2022-10-17T21:02:43.130Z,16.20
2022-10-17T21:05:44.681Z,16.50
2022-10-17T21:08:47.519Z,16.20
2022-10-17T21:11:52.409Z,16.70
2022-10-17T21:14:53.991Z,16.20
2022-10-17T21:17:55.641Z,16.40
2022-10-17T21:21:07.395Z,16.30
2022-10-17T21:24:14.285Z,16.30
2022-10-17T21:27:19.181Z,16.30
2022-10-17T21:30:21.574Z,16.00
2022-10-17T21:33:23.195Z,16.10
2022-10-17T21:36:26.120Z,15.90
2022-10-17T21:39:27.669Z,16.10
2022-10-17T21:42:29.490Z,15.90
2022-10-17T21:45:31.380Z,16.30
2022-10-17T21:48:33.767Z,15.70
2022-10-17T21:51:35.546Z,15.70
2022-10-17T21:54:37.117Z,15.60
2022-10-17T21:57:38.750Z,17.10
2022-10-17T22:00:40.297Z,16.20
2022-10-17T22:03:46.748Z,15.90
2022-10-17T22:06:51.035Z,15.90
2022-10-17T22:09:52.683Z,15.70
2022-10-17T22:12:54.249Z,15.60
2022-10-17T22:16:04.607Z,16.00
2022-10-17T22:19:08.082Z,15.90
2022-10-17T22:22:09.649Z,16.10
2022-10-17T22:25:11.225Z,15.80
2022-10-17T22:28:12.861Z,15.90
2022-10-17T22:31:14.932Z,16.00
2022-10-17T22:34:17.730Z,15.50
2022-10-17T22:37:19.284Z,16.60
2022-10-17T22:40:20.841Z,15.50
2022-10-17T22:43:22.709Z,15.50
2022-10-17T22:46:24.258Z,15.90
2022-10-17T22:49:25.804Z,15.50
2022-10-17T22:52:27.459Z,15.60
2022-10-17T22:55:29.088Z,15.90
2022-10-17T22:58:31.778Z,15.50
2022-10-17T23:01:33.378Z,15.50
2022-10-17T23:04:35.188Z,15.80
2022-10-17T23:07:37.160Z,15.60
2022-10-17T23:10:39.183Z,15.70
2022-10-17T23:13:41.077Z,17.40
2022-10-17T23:16:42.689Z,15.90
2022-10-17T23:19:44.264Z,15.60
2022-10-17T23:22:45.803Z,15.70
2022-10-17T23:25:47.701Z,16.20
2022-10-17T23:29:03.543Z,16.00
2022-10-17T23:33:03.133Z,15.50
2022-10-17T23:36:05.361Z,17.70
2022-10-17T23:39:07.421Z,16.20
2022-10-17T23:42:09.051Z,15.80
2022-10-17T23:45:11.421Z,15.80
2022-10-17T23:48:13.016Z,15.80
2022-10-17T23:51:14.619Z,16.50
2022-10-17T23:54:16.343Z,15.50
2022-10-17T23:57:17.974Z,16.10
